createdAt,value
2022-10-08T00:08:46.699Z,49.40
2022-10-08T00:18:56.506Z,49.20
2022-10-08T00:29:05.945Z,47.50
2022-10-08T00:39:16.585Z,47.10
2022-10-08T00:49:25.283Z,43.80
2022-10-08T00:59:32.637Z,45.70
2022-10-08T01:09:43.868Z,43.50
2022-10-08T01:20:14.603Z,47.10
2022-10-08T01:30:22.278Z,42.80
2022-10-08T01:40:36.796Z,38.20
2022-10-08T01:50:46.835Z,42.20
2022-10-08T02:00:54.491Z,42.80
2022-10-08T02:11:01.494Z,41.50
2022-10-08T02:21:16.269Z,42.70
2022-10-08T02:31:28.521Z,38.30
2022-10-08T02:41:41.770Z,40.50
2022-10-08T02:51:49.410Z,45.30
2022-10-08T03:02:01.126Z,36.60
2022-10-08T03:12:09.479Z,33.70
2022-10-08T03:22:16.663Z,32.40
2022-10-08T03:32:24.071Z,28.30
2022-10-08T03:42:31.200Z,28.20
2022-10-08T03:52:38.283Z,26.90
2022-10-08T04:02:45.703Z,28.30
2022-10-08T04:12:53.090Z,27.80
2022-10-08T04:23:00.267Z,27.60
2022-10-08T04:33:07.244Z,27.20
2022-10-08T04:43:14.881Z,22.80
2022-10-08T04:53:21.885Z,27.40
2022-10-08T05:03:28.833Z,24.70
2022-10-08T05:13:36.314Z,25.10
2022-10-08T05:23:44.451Z,19.80
2022-10-08T05:33:52.348Z,18.30
2022-10-08T05:44:02.644Z,16.10
2022-10-08T05:54:09.951Z,16.70
2022-10-08T06:04:17.543Z,19.10
2022-10-08T06:14:25.101Z,12.60
2022-10-08T06:24:32.594Z,15.90
2022-10-08T06:34:38.546Z,11.10
2022-10-08T06:44:45.917Z,10.70
2022-10-08T06:54:53.847Z,13.50
2022-10-08T07:05:01.073Z,16.40
2022-10-08T07:15:09.516Z,18.50
2022-10-08T07:25:15.570Z,15.20
2022-10-08T07:35:22.665Z,12.10
2022-10-08T07:45:29.945Z,13.40
2022-10-08T07:55:37.037Z,12.00
2022-10-08T08:05:44.220Z,15.80
2022-10-08T08:15:56.647Z,10.00
2022-10-08T08:26:02.077Z,10.70
2022-10-08T08:36:10.419Z,12.40
2022-10-08T08:46:22.367Z,11.90
2022-10-08T08:56:30.037Z,14.60
2022-10-08T09:06:39.190Z,11.20
2022-10-08T09:16:46.688Z,11.70
2022-10-08T09:26:54.141Z,12.90
2022-10-08T09:37:03.455Z,23.30
2022-10-08T09:47:14.748Z,18.40
2022-10-08T09:57:23.595Z,11.30
2022-10-08T10:07:40.076Z,19.00
2022-10-08T10:17:50.199Z,16.00
2022-10-08T10:28:00.460Z,18.40
2022-10-08T10:38:03.806Z,14.20
2022-10-08T10:48:09.753Z,16.80
2022-10-08T10:58:41.759Z,16.60
2022-10-08T11:08:52.490Z,29.60
2022-10-08T11:19:02.363Z,18.10
2022-10-08T11:29:09.816Z,23.20
2022-10-08T11:39:17.453Z,30.10
2022-10-08T11:49:54.004Z,20.20
2022-10-08T12:00:06.932Z,19.40
2022-10-08T12:10:30.841Z,23.50
2022-10-08T12:20:38.582Z,19.00
2022-10-08T12:30:56.055Z,23.40
2022-10-08T12:41:05.539Z,27.30
2022-10-08T12:51:22.793Z,24.00
2022-10-08T13:01:30.419Z,17.10
2022-10-08T13:11:37.736Z,19.20
2022-10-08T13:21:58.269Z,20.00
2022-10-08T13:32:03.093Z,25.20
2022-10-08T13:42:15.492Z,17.80
2022-10-08T13:52:24.367Z,17.10
2022-10-08T14:02:32.339Z,23.40
2022-10-08T14:12:39.689Z,21.70
2022-10-08T14:22:46.696Z,18.10
2022-10-08T14:32:54.582Z,21.70
2022-10-08T14:43:01.610Z,23.30
2022-10-08T14:53:08.683Z,22.10
2022-10-08T15:03:16.057Z,27.70
2022-10-08T15:13:23.291Z,19.10
2022-10-08T15:23:30.588Z,21.00
2022-10-08T15:33:37.653Z,22.10
2022-10-08T15:43:45.180Z,18.90
2022-10-08T15:53:52.859Z,25.50
2022-10-08T16:04:00.443Z,33.20
2022-10-08T16:14:10.094Z,36.30
2022-10-08T16:24:17.865Z,26.80
2022-10-08T16:34:27.258Z,25.50
2022-10-08T16:44:34.210Z,31.40
2022-10-08T16:54:41.200Z,33.10
2022-10-08T17:04:48.226Z,32.10
2022-10-08T17:14:55.632Z,96.10
2022-10-08T17:25:02.827Z,36.50
2022-10-08T17:35:07.917Z,44.30
2022-10-08T17:45:15.032Z,36.70
2022-10-08T17:55:20.794Z,42.20
2022-10-08T18:05:27.786Z,37.50
2022-10-08T18:15:37.528Z,37.60
2022-10-08T18:25:44.656Z,35.40
2022-10-08T18:35:51.755Z,32.60
2022-10-08T18:56:12.827Z,35.80
2022-10-08T19:06:21.937Z,33.70
2022-10-08T19:16:29.906Z,34.70
2022-10-08T19:26:36.947Z,38.10
2022-10-08T19:36:44.427Z,37.20
2022-10-08T19:46:51.556Z,33.80
2022-10-08T19:56:57.707Z,28.80
2022-10-08T20:07:04.503Z,27.80
2022-10-08T20:17:11.681Z,24.00
2022-10-08T20:27:18.791Z,20.70
2022-10-08T20:37:23.556Z,19.40
2022-10-08T20:47:29.628Z,18.40
2022-10-08T20:57:35.394Z,23.50
2022-10-08T21:07:41.384Z,23.60
2022-10-08T21:17:48.408Z,19.60
2022-10-08T21:27:55.387Z,17.50
2022-10-08T21:38:02.336Z,15.40
2022-10-08T21:48:09.565Z,20.90
2022-10-08T21:58:16.888Z,14.10
2022-10-08T22:08:24.143Z,8.80
2022-10-08T22:18:33.216Z,7.70
2022-10-08T22:28:41.211Z,10.20
2022-10-08T22:38:49.130Z,6.20
2022-10-08T22:48:57.510Z,12.10
2022-10-08T22:59:05.340Z,7.90
2022-10-08T23:09:14.676Z,7.30
2022-10-08T23:19:22.066Z,16.30
2022-10-08T23:29:29.544Z,10.00
2022-10-08T23:39:36.590Z,20.80
2022-10-08T23:49:43.753Z,20.70
2022-10-08T23:59:49.880Z,11.50
